sensor_id;sensor_type;location;lat;lon;timestamp;P1;durP1;ratioP1;P2;durP2;ratioP2
36189;SDS011;22232;50.914;13.858;2023-02-28T00:01:28;7.57;;;4.60;;
36189;SDS011;22232;50.914;13.858;2023-02-28T00:03:57;8.63;;;4.43;;
36189;SDS011;22232;50.914;13.858;2023-02-28T00:06:24;8.15;;;4.45;;
36189;SDS011;22232;50.914;13.858;2023-02-28T00:08:52;10.65;;;4.45;;
36189;SDS011;22232;50.914;13.858;2023-02-28T00:11:20;9.65;;;4.90;;
36189;SDS011;22232;50.914;13.858;2023-02-28T00:13:47;9.15;;;4.90;;
36189;SDS011;22232;50.914;13.858;2023-02-28T00:16:19;11.90;;;5.80;;
36189;SDS011;22232;50.914;13.858;2023-02-28T00:18:48;9.35;;;5.05;;
36189;SDS011;22232;50.914;13.858;2023-02-28T00:21:17;8.18;;;4.88;;
36189;SDS011;22232;50.914;13.858;2023-02-28T00:23:46;12.30;;;5.25;;
36189;SDS011;22232;50.914;13.858;2023-02-28T00:26:13;10.45;;;5.50;;
36189;SDS011;22232;50.914;13.858;2023-02-28T00:28:44;16.83;;;6.03;;
36189;SDS011;22232;50.914;13.858;2023-02-28T00:31:12;10.10;;;5.20;;
36189;SDS011;22232;50.914;13.858;2023-02-28T00:33:40;12.00;;;6.40;;
36189;SDS011;22232;50.914;13.858;2023-02-28T00:36:08;11.90;;;6.20;;
36189;SDS011;22232;50.914;13.858;2023-02-28T00:38:38;14.13;;;6.68;;
36189;SDS011;22232;50.914;13.858;2023-02-28T00:41:07;15.80;;;6.95;;
36189;SDS011;22232;50.914;13.858;2023-02-28T00:43:35;11.55;;;6.22;;
36189;SDS011;22232;50.914;13.858;2023-02-28T00:46:04;17.77;;;6.32;;
36189;SDS011;22232;50.914;13.858;2023-02-28T00:48:33;12.68;;;6.60;;
36189;SDS011;22232;50.914;13.858;2023-02-28T00:51:00;12.60;;;6.20;;
36189;SDS011;22232;50.914;13.858;2023-02-28T00:53:28;16.08;;;6.85;;
36189;SDS011;22232;50.914;13.858;2023-02-28T00:55:57;13.60;;;6.43;;
36189;SDS011;22232;50.914;13.858;2023-02-28T00:58:26;14.02;;;6.95;;
36189;SDS011;22232;50.914;13.858;2023-02-28T01:00:54;13.43;;;6.38;;
36189;SDS011;22232;50.914;13.858;2023-02-28T01:03:23;13.75;;;6.28;;
36189;SDS011;22232;50.914;13.858;2023-02-28T01:05:51;13.23;;;6.28;;
36189;SDS011;22232;50.914;13.858;2023-02-28T01:08:20;12.27;;;6.07;;
36189;SDS011;22232;50.914;13.858;2023-02-28T01:10:47;13.43;;;6.07;;
36189;SDS011;22232;50.914;13.858;2023-02-28T01:13:15;11.73;;;5.78;;
36189;SDS011;22232;50.914;13.858;2023-02-28T01:15:44;14.57;;;6.03;;
36189;SDS011;22232;50.914;13.858;2023-02-28T01:18:16;9.32;;;5.35;;
36189;SDS011;22232;50.914;13.858;2023-02-28T01:20:44;12.27;;;5.60;;
36189;SDS011;22232;50.914;13.858;2023-02-28T01:23:13;10.90;;;5.38;;
36189;SDS011;22232;50.914;13.858;2023-02-28T01:25:41;7.60;;;4.50;;
36189;SDS011;22232;50.914;13.858;2023-02-28T01:28:08;10.82;;;5.13;;
36189;SDS011;22232;50.914;13.858;2023-02-28T01:30:36;12.52;;;5.35;;
36189;SDS011;22232;50.914;13.858;2023-02-28T01:33:03;11.13;;;5.72;;
36189;SDS011;22232;50.914;13.858;2023-02-28T01:35:34;12.07;;;5.40;;
36189;SDS011;22232;50.914;13.858;2023-02-28T01:38:02;11.73;;;4.88;;
36189;SDS011;22232;50.914;13.858;2023-02-28T01:40:47;10.82;;;5.88;;
36189;SDS011;22232;50.914;13.858;2023-02-28T01:43:19;10.82;;;5.68;;
36189;SDS011;22232;50.914;13.858;2023-02-28T01:45:49;12.25;;;6.30;;
36189;SDS011;22232;50.914;13.858;2023-02-28T01:48:17;16.95;;;6.78;;
36189;SDS011;22232;50.914;13.858;2023-02-28T01:50:46;12.90;;;6.07;;
36189;SDS011;22232;50.914;13.858;2023-02-28T01:53:17;14.07;;;6.50;;
36189;SDS011;22232;50.914;13.858;2023-02-28T01:58:20;8.85;;;5.45;;
36189;SDS011;22232;50.914;13.858;2023-02-28T02:00:48;11.13;;;6.00;;
36189;SDS011;22232;50.914;13.858;2023-02-28T02:03:16;14.57;;;6.38;;
36189;SDS011;22232;50.914;13.858;2023-02-28T02:05:47;11.95;;;5.97;;
36189;SDS011;22232;50.914;13.858;2023-02-28T02:08:17;13.07;;;6.65;;
36189;SDS011;22232;50.914;13.858;2023-02-28T02:10:49;15.40;;;6.80;;
36189;SDS011;22232;50.914;13.858;2023-02-28T02:19:22;12.40;;;6.50;;
36189;SDS011;22232;50.914;13.858;2023-02-28T02:30:44;13.60;;;6.28;;
36189;SDS011;22232;50.914;13.858;2023-02-28T02:36:30;12.95;;;6.32;;
36189;SDS011;22232;50.914;13.858;2023-02-28T02:39:27;11.38;;;6.30;;
36189;SDS011;22232;50.914;13.858;2023-02-28T02:41:58;13.38;;;6.78;;
36189;SDS011;22232;50.914;13.858;2023-02-28T02:44:35;11.30;;;5.90;;
36189;SDS011;22232;50.914;13.858;2023-02-28T02:47:20;10.48;;;6.05;;
36189;SDS011;22232;50.914;13.858;2023-02-28T02:49:53;17.60;;;6.35;;
36189;SDS011;22232;50.914;13.858;2023-02-28T02:52:29;12.07;;;6.25;;
36189;SDS011;22232;50.914;13.858;2023-02-28T02:55:05;12.18;;;6.38;;
36189;SDS011;22232;50.914;13.858;2023-02-28T02:57:45;13.60;;;7.25;;
36189;SDS011;22232;50.914;13.858;2023-02-28T03:00:16;18.63;;;7.85;;
36189;SDS011;22232;50.914;13.858;2023-02-28T03:02:47;14.02;;;7.28;;
36189;SDS011;22232;50.914;13.858;2023-02-28T03:05:21;12.60;;;6.95;;
36189;SDS011;22232;50.914;13.858;2023-02-28T03:07:54;19.48;;;7.80;;
36189;SDS011;22232;50.914;13.858;2023-02-28T03:10:26;15.65;;;7.22;;
36189;SDS011;22232;50.914;13.858;2023-02-28T03:13:06;11.70;;;6.20;;
36189;SDS011;22232;50.914;13.858;2023-02-28T03:21:38;13.23;;;7.53;;
36189;SDS011;22232;50.914;13.858;2023-02-28T03:24:18;15.68;;;7.63;;
36189;SDS011;22232;50.914;13.858;2023-02-28T03:26:54;17.13;;;7.68;;
36189;SDS011;22232;50.914;13.858;2023-02-28T03:29:33;17.88;;;8.20;;
36189;SDS011;22232;50.914;13.858;2023-02-28T03:34:56;17.80;;;9.60;;
36189;SDS011;22232;50.914;13.858;2023-02-28T03:37:31;18.20;;;8.93;;
36189;SDS011;22232;50.914;13.858;2023-02-28T03:40:07;22.33;;;9.52;;
36189;SDS011;22232;50.914;13.858;2023-02-28T03:42:40;20.73;;;9.52;;
36189;SDS011;22232;50.914;13.858;2023-02-28T03:45:11;19.02;;;9.48;;
36189;SDS011;22232;50.914;13.858;2023-02-28T03:47:48;20.20;;;10.13;;
36189;SDS011;22232;50.914;13.858;2023-02-28T03:50:24;17.90;;;9.15;;
36189;SDS011;22232;50.914;13.858;2023-02-28T03:55:42;19.50;;;10.30;;
36189;SDS011;22232;50.914;13.858;2023-02-28T03:58:28;25.45;;;10.27;;
36189;SDS011;22232;50.914;13.858;2023-02-28T04:01:13;22.73;;;10.35;;
36189;SDS011;22232;50.914;13.858;2023-02-28T04:03:47;19.15;;;10.10;;
36189;SDS011;22232;50.914;13.858;2023-02-28T04:06:19;21.55;;;10.68;;
36189;SDS011;22232;50.914;13.858;2023-02-28T04:08:49;23.63;;;11.00;;
36189;SDS011;22232;50.914;13.858;2023-02-28T04:13:44;23.92;;;11.68;;
36189;SDS011;22232;50.914;13.858;2023-02-28T04:16:13;22.30;;;11.60;;
36189;SDS011;22232;50.914;13.858;2023-02-28T04:19:00;24.73;;;12.15;;
36189;SDS011;22232;50.914;13.858;2023-02-28T04:21:33;26.58;;;12.32;;
36189;SDS011;22232;50.914;13.858;2023-02-28T04:24:13;23.90;;;12.10;;
36189;SDS011;22232;50.914;13.858;2023-02-28T04:26:44;24.05;;;12.57;;
36189;SDS011;22232;50.914;13.858;2023-02-28T04:29:14;25.60;;;12.70;;
36189;SDS011;22232;50.914;13.858;2023-02-28T04:31:46;29.70;;;12.68;;
36189;SDS011;22232;50.914;13.858;2023-02-28T04:34:14;28.85;;;13.00;;
36189;SDS011;22232;50.914;13.858;2023-02-28T04:36:42;27.60;;;12.20;;
36189;SDS011;22232;50.914;13.858;2023-02-28T04:39:10;23.60;;;12.05;;
36189;SDS011;22232;50.914;13.858;2023-02-28T04:41:37;25.95;;;12.38;;
36189;SDS011;22232;50.914;13.858;2023-02-28T04:44:05;27.95;;;12.77;;
36189;SDS011;22232;50.914;13.858;2023-02-28T04:46:33;24.88;;;12.13;;
36189;SDS011;22232;50.914;13.858;2023-02-28T04:49:00;28.98;;;12.27;;
36189;SDS011;22232;50.914;13.858;2023-02-28T04:51:28;23.05;;;11.52;;
36189;SDS011;22232;50.914;13.858;2023-02-28T04:53:56;23.73;;;12.15;;
36189;SDS011;22232;50.914;13.858;2023-02-28T04:56:23;23.13;;;11.95;;
36189;SDS011;22232;50.914;13.858;2023-02-28T04:58:51;23.83;;;11.52;;
36189;SDS011;22232;50.914;13.858;2023-02-28T05:01:24;25.15;;;12.38;;
36189;SDS011;22232;50.914;13.858;2023-02-28T05:03:56;32.00;;;12.75;;
36189;SDS011;22232;50.914;13.858;2023-02-28T05:06:26;27.80;;;12.73;;
36189;SDS011;22232;50.914;13.858;2023-02-28T05:08:54;29.42;;;14.07;;
36189;SDS011;22232;50.914;13.858;2023-02-28T05:11:29;27.02;;;13.80;;
36189;SDS011;22232;50.914;13.858;2023-02-28T05:14:02;28.80;;;13.95;;
36189;SDS011;22232;50.914;13.858;2023-02-28T05:16:31;30.17;;;14.40;;
36189;SDS011;22232;50.914;13.858;2023-02-28T05:18:59;32.42;;;15.32;;
36189;SDS011;22232;50.914;13.858;2023-02-28T05:21:28;36.17;;;16.05;;
36189;SDS011;22232;50.914;13.858;2023-02-28T05:23:59;32.97;;;15.63;;
36189;SDS011;22232;50.914;13.858;2023-02-28T05:26:28;34.90;;;15.68;;
36189;SDS011;22232;50.914;13.858;2023-02-28T05:28:56;32.63;;;15.15;;
36189;SDS011;22232;50.914;13.858;2023-02-28T05:31:24;33.33;;;15.68;;
36189;SDS011;22232;50.914;13.858;2023-02-28T05:33:51;35.20;;;15.68;;
36189;SDS011;22232;50.914;13.858;2023-02-28T05:36:19;40.28;;;16.80;;
36189;SDS011;22232;50.914;13.858;2023-02-28T05:38:47;30.67;;;15.68;;
36189;SDS011;22232;50.914;13.858;2023-02-28T05:41:17;34.70;;;14.85;;
36189;SDS011;22232;50.914;13.858;2023-02-28T05:43:47;31.52;;;15.00;;
36189;SDS011;22232;50.914;13.858;2023-02-28T05:46:15;29.10;;;13.70;;
36189;SDS011;22232;50.914;13.858;2023-02-28T05:48:45;28.73;;;15.27;;
36189;SDS011;22232;50.914;13.858;2023-02-28T05:51:15;27.73;;;13.65;;
36189;SDS011;22232;50.914;13.858;2023-02-28T05:53:43;27.83;;;12.60;;
36189;SDS011;22232;50.914;13.858;2023-02-28T05:56:10;27.52;;;12.77;;
36189;SDS011;22232;50.914;13.858;2023-02-28T05:58:38;29.25;;;13.27;;
36189;SDS011;22232;50.914;13.858;2023-02-28T06:04:07;26.52;;;13.10;;
36189;SDS011;22232;50.914;13.858;2023-02-28T06:06:51;27.80;;;13.38;;
36189;SDS011;22232;50.914;13.858;2023-02-28T06:09:19;29.55;;;14.75;;
36189;SDS011;22232;50.914;13.858;2023-02-28T06:11:47;28.08;;;12.80;;
36189;SDS011;22232;50.914;13.858;2023-02-28T06:14:16;24.65;;;13.18;;
36189;SDS011;22232;50.914;13.858;2023-02-28T06:16:45;25.55;;;11.75;;
36189;SDS011;22232;50.914;13.858;2023-02-28T06:19:13;22.95;;;10.60;;
36189;SDS011;22232;50.914;13.858;2023-02-28T06:21:42;20.98;;;10.02;;
36189;SDS011;22232;50.914;13.858;2023-02-28T06:24:10;21.98;;;11.20;;
36189;SDS011;22232;50.914;13.858;2023-02-28T06:26:37;22.42;;;10.57;;
36189;SDS011;22232;50.914;13.858;2023-02-28T06:29:05;17.67;;;9.15;;
36189;SDS011;22232;50.914;13.858;2023-02-28T06:31:32;16.85;;;8.88;;
36189;SDS011;22232;50.914;13.858;2023-02-28T06:34:00;17.13;;;9.07;;
36189;SDS011;22232;50.914;13.858;2023-02-28T06:36:28;19.38;;;9.05;;
36189;SDS011;22232;50.914;13.858;2023-02-28T06:38:56;20.38;;;8.75;;
36189;SDS011;22232;50.914;13.858;2023-02-28T06:41:24;15.68;;;8.32;;
36189;SDS011;22232;50.914;13.858;2023-02-28T06:43:53;16.67;;;8.55;;
36189;SDS011;22232;50.914;13.858;2023-02-28T06:46:21;22.13;;;9.25;;
36189;SDS011;22232;50.914;13.858;2023-02-28T06:48:49;18.20;;;9.32;;
36189;SDS011;22232;50.914;13.858;2023-02-28T06:51:18;16.20;;;8.50;;
36189;SDS011;22232;50.914;13.858;2023-02-28T06:53:51;19.90;;;8.40;;
36189;SDS011;22232;50.914;13.858;2023-02-28T06:56:19;18.25;;;8.73;;
36189;SDS011;22232;50.914;13.858;2023-02-28T06:58:48;19.23;;;9.15;;
36189;SDS011;22232;50.914;13.858;2023-02-28T07:01:17;15.95;;;8.18;;
36189;SDS011;22232;50.914;13.858;2023-02-28T07:03:46;16.77;;;9.20;;
36189;SDS011;22232;50.914;13.858;2023-02-28T07:06:19;13.25;;;8.20;;
36189;SDS011;22232;50.914;13.858;2023-02-28T07:08:51;15.73;;;8.50;;
36189;SDS011;22232;50.914;13.858;2023-02-28T07:11:20;15.13;;;8.27;;
36189;SDS011;22232;50.914;13.858;2023-02-28T07:13:53;19.50;;;9.05;;
36189;SDS011;22232;50.914;13.858;2023-02-28T07:16:22;18.90;;;9.38;;
36189;SDS011;22232;50.914;13.858;2023-02-28T07:18:54;19.58;;;9.02;;
36189;SDS011;22232;50.914;13.858;2023-02-28T07:21:22;20.10;;;9.55;;
36189;SDS011;22232;50.914;13.858;2023-02-28T07:23:50;15.02;;;8.57;;
36189;SDS011;22232;50.914;13.858;2023-02-28T07:26:18;15.38;;;9.35;;
36189;SDS011;22232;50.914;13.858;2023-02-28T07:28:47;16.75;;;9.38;;
36189;SDS011;22232;50.914;13.858;2023-02-28T07:31:16;17.60;;;9.35;;
36189;SDS011;22232;50.914;13.858;2023-02-28T07:33:45;17.52;;;9.10;;
36189;SDS011;22232;50.914;13.858;2023-02-28T07:36:13;17.33;;;8.88;;
36189;SDS011;22232;50.914;13.858;2023-02-28T07:38:45;19.85;;;9.52;;
36189;SDS011;22232;50.914;13.858;2023-02-28T07:41:18;13.88;;;8.43;;
36189;SDS011;22232;50.914;13.858;2023-02-28T07:43:47;15.43;;;8.75;;
36189;SDS011;22232;50.914;13.858;2023-02-28T07:46:16;16.17;;;9.18;;
36189;SDS011;22232;50.914;13.858;2023-02-28T07:48:44;17.20;;;8.63;;
36189;SDS011;22232;50.914;13.858;2023-02-28T07:51:12;16.50;;;9.68;;
36189;SDS011;22232;50.914;13.858;2023-02-28T07:53:39;18.20;;;9.60;;
36189;SDS011;22232;50.914;13.858;2023-02-28T07:56:07;18.15;;;9.77;;
36189;SDS011;22232;50.914;13.858;2023-02-28T07:58:34;19.63;;;9.35;;
36189;SDS011;22232;50.914;13.858;2023-02-28T08:01:06;19.15;;;9.77;;
36189;SDS011;22232;50.914;13.858;2023-02-28T08:03:35;22.13;;;11.48;;
36189;SDS011;22232;50.914;13.858;2023-02-28T08:06:04;18.95;;;10.35;;
36189;SDS011;22232;50.914;13.858;2023-02-28T08:08:33;26.05;;;11.18;;
36189;SDS011;22232;50.914;13.858;2023-02-28T08:11:01;19.17;;;10.80;;
36189;SDS011;22232;50.914;13.858;2023-02-28T08:13:30;23.48;;;11.30;;
36189;SDS011;22232;50.914;13.858;2023-02-28T08:15:58;20.75;;;10.95;;
36189;SDS011;22232;50.914;13.858;2023-02-28T08:18:25;20.40;;;10.07;;
36189;SDS011;22232;50.914;13.858;2023-02-28T08:20:53;22.23;;;11.27;;
36189;SDS011;22232;50.914;13.858;2023-02-28T08:23:20;20.27;;;10.52;;
36189;SDS011;22232;50.914;13.858;2023-02-28T08:25:56;21.73;;;11.45;;
36189;SDS011;22232;50.914;13.858;2023-02-28T08:28:24;27.30;;;11.25;;
36189;SDS011;22232;50.914;13.858;2023-02-28T08:30:53;19.17;;;10.38;;
36189;SDS011;22232;50.914;13.858;2023-02-28T08:33:22;21.90;;;10.82;;
36189;SDS011;22232;50.914;13.858;2023-02-28T08:35:53;24.10;;;11.85;;
36189;SDS011;22232;50.914;13.858;2023-02-28T08:38:22;22.65;;;11.15;;
36189;SDS011;22232;50.914;13.858;2023-02-28T08:40:56;21.67;;;11.02;;
36189;SDS011;22232;50.914;13.858;2023-02-28T08:43:26;23.30;;;10.52;;
36189;SDS011;22232;50.914;13.858;2023-02-28T08:45:55;21.38;;;10.65;;
36189;SDS011;22232;50.914;13.858;2023-02-28T08:48:24;22.77;;;11.70;;
36189;SDS011;22232;50.914;13.858;2023-02-28T08:50:59;20.48;;;10.85;;
36189;SDS011;22232;50.914;13.858;2023-02-28T08:53:38;22.60;;;11.77;;
36189;SDS011;22232;50.914;13.858;2023-02-28T08:56:07;21.33;;;10.80;;
36189;SDS011;22232;50.914;13.858;2023-02-28T08:58:37;23.50;;;10.93;;
36189;SDS011;22232;50.914;13.858;2023-02-28T09:04:01;19.63;;;10.85;;
36189;SDS011;22232;50.914;13.858;2023-02-28T09:06:29;20.23;;;10.48;;
36189;SDS011;22232;50.914;13.858;2023-02-28T09:08:58;21.48;;;10.45;;
36189;SDS011;22232;50.914;13.858;2023-02-28T09:11:26;18.67;;;9.68;;
36189;SDS011;22232;50.914;13.858;2023-02-28T09:13:54;20.02;;;10.05;;
36189;SDS011;22232;50.914;13.858;2023-02-28T09:16:22;20.17;;;11.07;;
36189;SDS011;22232;50.914;13.858;2023-02-28T09:18:50;22.60;;;11.00;;
36189;SDS011;22232;50.914;13.858;2023-02-28T09:21:18;21.98;;;10.38;;
36189;SDS011;22232;50.914;13.858;2023-02-28T09:23:47;21.30;;;10.93;;
36189;SDS011;22232;50.914;13.858;2023-02-28T09:26:17;26.08;;;11.18;;
36189;SDS011;22232;50.914;13.858;2023-02-28T09:28:49;20.67;;;10.40;;
36189;SDS011;22232;50.914;13.858;2023-02-28T09:31:18;23.52;;;10.77;;
36189;SDS011;22232;50.914;13.858;2023-02-28T09:33:53;19.67;;;10.05;;
36189;SDS011;22232;50.914;13.858;2023-02-28T09:36:26;21.92;;;10.38;;
36189;SDS011;22232;50.914;13.858;2023-02-28T09:39:10;20.08;;;8.93;;
36189;SDS011;22232;50.914;13.858;2023-02-28T09:41:41;16.92;;;9.68;;
36189;SDS011;22232;50.914;13.858;2023-02-28T09:44:26;19.95;;;9.60;;
36189;SDS011;22232;50.914;13.858;2023-02-28T09:49:53;17.60;;;9.40;;
36189;SDS011;22232;50.914;13.858;2023-02-28T09:52:27;19.33;;;9.25;;
36189;SDS011;22232;50.914;13.858;2023-02-28T09:55:41;18.02;;;9.13;;
36189;SDS011;22232;50.914;13.858;2023-02-28T09:58:16;17.98;;;9.18;;
36189;SDS011;22232;50.914;13.858;2023-02-28T10:00:54;16.55;;;8.57;;
36189;SDS011;22232;50.914;13.858;2023-02-28T10:03:39;16.15;;;8.68;;
36189;SDS011;22232;50.914;13.858;2023-02-28T10:08:39;17.27;;;8.75;;
36189;SDS011;22232;50.914;13.858;2023-02-28T10:11:15;17.63;;;8.65;;
36189;SDS011;22232;50.914;13.858;2023-02-28T10:16:13;19.00;;;9.95;;
36189;SDS011;22232;50.914;13.858;2023-02-28T10:21:21;19.27;;;9.35;;
36189;SDS011;22232;50.914;13.858;2023-02-28T10:24:02;18.63;;;8.82;;
36189;SDS011;22232;50.914;13.858;2023-02-28T10:26:51;19.30;;;8.43;;
36189;SDS011;22232;50.914;13.858;2023-02-28T10:29:24;16.88;;;9.00;;
36189;SDS011;22232;50.914;13.858;2023-02-28T10:31:51;18.25;;;9.40;;
36189;SDS011;22232;50.914;13.858;2023-02-28T10:34:19;18.98;;;9.88;;
36189;SDS011;22232;50.914;13.858;2023-02-28T10:36:46;19.67;;;8.38;;
36189;SDS011;22232;50.914;13.858;2023-02-28T10:42:18;17.98;;;9.30;;
36189;SDS011;22232;50.914;13.858;2023-02-28T10:44:47;13.48;;;7.70;;
36189;SDS011;22232;50.914;13.858;2023-02-28T10:47:16;14.88;;;8.40;;
36189;SDS011;22232;50.914;13.858;2023-02-28T10:49:47;15.68;;;7.50;;
36189;SDS011;22232;50.914;13.858;2023-02-28T10:52:32;16.88;;;8.10;;
36189;SDS011;22232;50.914;13.858;2023-02-28T10:55:19;15.90;;;8.48;;
36189;SDS011;22232;50.914;13.858;2023-02-28T10:57:51;14.70;;;8.50;;
36189;SDS011;22232;50.914;13.858;2023-02-28T11:00:20;20.13;;;9.05;;
36189;SDS011;22232;50.914;13.858;2023-02-28T11:02:49;19.45;;;8.43;;
36189;SDS011;22232;50.914;13.858;2023-02-28T11:05:21;16.77;;;9.02;;
36189;SDS011;22232;50.914;13.858;2023-02-28T11:07:56;16.20;;;8.05;;
36189;SDS011;22232;50.914;13.858;2023-02-28T11:10:33;15.27;;;7.72;;
36189;SDS011;22232;50.914;13.858;2023-02-28T11:13:01;15.00;;;7.55;;
36189;SDS011;22232;50.914;13.858;2023-02-28T11:15:31;15.55;;;7.28;;
36189;SDS011;22232;50.914;13.858;2023-02-28T11:18:21;15.68;;;8.13;;
36189;SDS011;22232;50.914;13.858;2023-02-28T11:21:04;13.80;;;7.47;;
36189;SDS011;22232;50.914;13.858;2023-02-28T11:23:33;14.23;;;8.18;;
36189;SDS011;22232;50.914;13.858;2023-02-28T11:26:04;14.73;;;7.82;;
36189;SDS011;22232;50.914;13.858;2023-02-28T11:28:38;16.98;;;7.85;;
36189;SDS011;22232;50.914;13.858;2023-02-28T11:36:21;12.77;;;7.45;;
36189;SDS011;22232;50.914;13.858;2023-02-28T11:38:54;18.13;;;7.70;;
36189;SDS011;22232;50.914;13.858;2023-02-28T11:50:13;13.10;;;7.78;;
36189;SDS011;22232;50.914;13.858;2023-02-28T11:52:54;14.70;;;7.55;;
36189;SDS011;22232;50.914;13.858;2023-02-28T12:01:01;12.98;;;7.28;;
36189;SDS011;22232;50.914;13.858;2023-02-28T12:06:40;15.48;;;7.57;;
36189;SDS011;22232;50.914;13.858;2023-02-28T12:18:27;15.15;;;7.78;;
36189;SDS011;22232;50.914;13.858;2023-02-28T12:26:42;14.75;;;7.05;;
36189;SDS011;22232;50.914;13.858;2023-02-28T12:29:30;12.57;;;7.45;;
36189;SDS011;22232;50.914;13.858;2023-02-28T12:32:04;14.10;;;7.18;;
36189;SDS011;22232;50.914;13.858;2023-02-28T12:34:39;18.90;;;7.88;;
36189;SDS011;22232;50.914;13.858;2023-02-28T12:37:17;14.93;;;7.65;;
36189;SDS011;22232;50.914;13.858;2023-02-28T12:39:54;13.43;;;7.40;;
36189;SDS011;22232;50.914;13.858;2023-02-28T12:42:29;12.82;;;7.47;;
36189;SDS011;22232;50.914;13.858;2023-02-28T12:45:01;12.15;;;7.07;;
36189;SDS011;22232;50.914;13.858;2023-02-28T12:47:38;12.85;;;6.93;;
36189;SDS011;22232;50.914;13.858;2023-02-28T12:50:09;15.65;;;7.22;;
36189;SDS011;22232;50.914;13.858;2023-02-28T12:52:46;15.65;;;7.30;;
36189;SDS011;22232;50.914;13.858;2023-02-28T12:55:21;10.95;;;6.55;;
36189;SDS011;22232;50.914;13.858;2023-02-28T13:09:04;15.00;;;7.55;;
36189;SDS011;22232;50.914;13.858;2023-02-28T13:14:18;19.95;;;7.72;;
36189;SDS011;22232;50.914;13.858;2023-02-28T13:17:00;12.82;;;7.35;;
36189;SDS011;22232;50.914;13.858;2023-02-28T13:19:59;15.65;;;7.15;;
36189;SDS011;22232;50.914;13.858;2023-02-28T13:22:37;14.05;;;7.43;;
36189;SDS011;22232;50.914;13.858;2023-02-28T13:27:51;16.45;;;8.10;;
36189;SDS011;22232;50.914;13.858;2023-02-28T13:38:59;19.88;;;10.65;;
36189;SDS011;22232;50.914;13.858;2023-02-28T13:44:06;18.45;;;10.43;;
36189;SDS011;22232;50.914;13.858;2023-02-28T13:55:02;22.15;;;11.10;;
36189;SDS011;22232;50.914;13.858;2023-02-28T14:05:22;23.63;;;11.07;;
36189;SDS011;22232;50.914;13.858;2023-02-28T14:07:53;20.63;;;11.27;;
36189;SDS011;22232;50.914;13.858;2023-02-28T14:10:31;19.17;;;10.70;;
36189;SDS011;22232;50.914;13.858;2023-02-28T14:16:35;21.03;;;11.00;;
36189;SDS011;22232;50.914;13.858;2023-02-28T14:24:52;22.52;;;11.45;;
36189;SDS011;22232;50.914;13.858;2023-02-28T14:30:40;21.42;;;12.20;;
36189;SDS011;22232;50.914;13.858;2023-02-28T14:33:14;22.60;;;11.93;;
36189;SDS011;22232;50.914;13.858;2023-02-28T14:36:03;25.15;;;12.27;;
36189;SDS011;22232;50.914;13.858;2023-02-28T14:38:52;23.17;;;12.27;;
36189;SDS011;22232;50.914;13.858;2023-02-28T14:41:32;19.80;;;10.15;;
36189;SDS011;22232;50.914;13.858;2023-02-28T14:44:19;26.80;;;10.73;;
36189;SDS011;22232;50.914;13.858;2023-02-28T14:46:55;19.55;;;10.38;;
36189;SDS011;22232;50.914;13.858;2023-02-28T14:49:36;21.30;;;10.88;;
36189;SDS011;22232;50.914;13.858;2023-02-28T14:54:43;24.60;;;11.65;;
36189;SDS011;22232;50.914;13.858;2023-02-28T14:57:28;19.27;;;10.70;;
36189;SDS011;22232;50.914;13.858;2023-02-28T15:02:45;22.08;;;11.00;;
36189;SDS011;22232;50.914;13.858;2023-02-28T15:07:44;20.05;;;9.98;;
36189;SDS011;22232;50.914;13.858;2023-02-28T15:10:16;17.98;;;10.10;;
36189;SDS011;22232;50.914;13.858;2023-02-28T15:12:56;18.63;;;10.65;;
36189;SDS011;22232;50.914;13.858;2023-02-28T15:18:46;23.60;;;11.13;;
36189;SDS011;22232;50.914;13.858;2023-02-28T15:21:22;19.70;;;10.45;;
36189;SDS011;22232;50.914;13.858;2023-02-28T15:26:30;24.00;;;11.20;;
36189;SDS011;22232;50.914;13.858;2023-02-28T15:29:20;21.60;;;11.20;;
36189;SDS011;22232;50.914;13.858;2023-02-28T15:31:57;22.27;;;10.90;;
36189;SDS011;22232;50.914;13.858;2023-02-28T15:37:26;20.00;;;10.82;;
36189;SDS011;22232;50.914;13.858;2023-02-28T15:39:54;23.30;;;11.85;;
36189;SDS011;22232;50.914;13.858;2023-02-28T15:42:27;22.52;;;11.93;;
36189;SDS011;22232;50.914;13.858;2023-02-28T15:44:56;25.92;;;12.35;;
36189;SDS011;22232;50.914;13.858;2023-02-28T15:47:25;24.08;;;12.43;;
36189;SDS011;22232;50.914;13.858;2023-02-28T15:50:03;25.75;;;12.30;;
36189;SDS011;22232;50.914;13.858;2023-02-28T15:52:38;24.75;;;12.93;;
36189;SDS011;22232;50.914;13.858;2023-02-28T15:55:09;23.98;;;12.27;;
36189;SDS011;22232;50.914;13.858;2023-02-28T15:57:53;26.08;;;12.40;;
36189;SDS011;22232;50.914;13.858;2023-02-28T16:00:25;24.45;;;12.77;;
36189;SDS011;22232;50.914;13.858;2023-02-28T16:02:54;24.45;;;12.35;;
36189;SDS011;22232;50.914;13.858;2023-02-28T16:05:23;25.20;;;12.32;;
36189;SDS011;22232;50.914;13.858;2023-02-28T16:07:58;22.30;;;12.02;;
36189;SDS011;22232;50.914;13.858;2023-02-28T16:10:28;26.77;;;13.73;;
36189;SDS011;22232;50.914;13.858;2023-02-28T16:12:56;23.80;;;12.45;;
36189;SDS011;22232;50.914;13.858;2023-02-28T16:15:29;23.70;;;12.60;;
36189;SDS011;22232;50.914;13.858;2023-02-28T16:18:00;22.90;;;13.77;;
36189;SDS011;22232;50.914;13.858;2023-02-28T16:20:29;25.27;;;12.82;;
36189;SDS011;22232;50.914;13.858;2023-02-28T16:22:58;24.48;;;13.45;;
36189;SDS011;22232;50.914;13.858;2023-02-28T16:25:37;22.25;;;12.57;;
36189;SDS011;22232;50.914;13.858;2023-02-28T16:28:30;25.75;;;13.00;;
36189;SDS011;22232;50.914;13.858;2023-02-28T16:31:05;27.35;;;12.80;;
36189;SDS011;22232;50.914;13.858;2023-02-28T16:33:34;28.48;;;12.57;;
36189;SDS011;22232;50.914;13.858;2023-02-28T16:36:02;25.13;;;12.70;;
36189;SDS011;22232;50.914;13.858;2023-02-28T16:38:29;27.23;;;13.20;;
36189;SDS011;22232;50.914;13.858;2023-02-28T16:40:57;24.30;;;12.25;;
36189;SDS011;22232;50.914;13.858;2023-02-28T16:43:27;25.92;;;11.77;;
36189;SDS011;22232;50.914;13.858;2023-02-28T16:45:55;22.30;;;11.32;;
36189;SDS011;22232;50.914;13.858;2023-02-28T16:48:27;22.17;;;11.98;;
36189;SDS011;22232;50.914;13.858;2023-02-28T16:50:54;21.83;;;11.23;;
36189;SDS011;22232;50.914;13.858;2023-02-28T16:53:22;22.95;;;11.88;;
36189;SDS011;22232;50.914;13.858;2023-02-28T16:55:49;19.70;;;10.80;;
36189;SDS011;22232;50.914;13.858;2023-02-28T16:58:18;20.23;;;12.00;;
36189;SDS011;22232;50.914;13.858;2023-02-28T17:00:48;25.10;;;11.95;;
36189;SDS011;22232;50.914;13.858;2023-02-28T17:03:20;22.75;;;11.27;;
36189;SDS011;22232;50.914;13.858;2023-02-28T17:05:59;18.40;;;10.65;;
36189;SDS011;22232;50.914;13.858;2023-02-28T17:08:27;22.48;;;11.32;;
36189;SDS011;22232;50.914;13.858;2023-02-28T17:10:56;19.27;;;10.73;;
36189;SDS011;22232;50.914;13.858;2023-02-28T17:13:24;18.95;;;10.73;;
36189;SDS011;22232;50.914;13.858;2023-02-28T17:15:51;21.08;;;10.95;;
36189;SDS011;22232;50.914;13.858;2023-02-28T17:18:19;19.45;;;10.75;;
36189;SDS011;22232;50.914;13.858;2023-02-28T17:20:48;21.40;;;11.43;;
36189;SDS011;22232;50.914;13.858;2023-02-28T17:23:16;22.02;;;11.07;;
36189;SDS011;22232;50.914;13.858;2023-02-28T17:25:43;21.50;;;11.43;;
36189;SDS011;22232;50.914;13.858;2023-02-28T17:28:23;23.00;;;11.77;;